Asaph, Pennsylvania
Current Conditions -  °F | °C
As of 9:15 PM on Thursday 18 Dec 2014 (Local Time) from KN38 Reporting Station
Overcast Overcast  
Wind Chill: 17°   Ceiling: 2700
Heat Index: 28°   Visibility: 10mi
Dew Point: 23°   Wind: 14mph
Humidity: 80%   Direction: 290°WNW
Pressure: 29.99"   Gusts: NA
Location:  41.7308°N, 77.349°W
Report Text: KN38 190215Z AUTO 29012KT 260V320 10SM SCT021 OVC027 M02/M05 A2999 RMK AO2
Loading
Personal Weather Stations






























Interactive Weather Map New forecast layout! Learn more

10-Day Weather Forecast

Advertisements
Track Severe Weather on mobile